Portada
METAR-TAF:

METAR-TAF

Aeroports :

Rabat, Marroc

Aeroport de Rabat

latitud: 34-03N, longitud: 006-46W, altitud: 84 m

Observació

L'informe es va fer fa 18 hores i 38 minuts, a les 15:00 UTC
Vent 9 kt del Nord/Nord-Oest
Temperatura 16°C
Humitat 72%
Pressió 1013 hPa
Visibilitat: 5000 m
Escasses núvols a una alçada de 1000 ft
Núvols disperses a una alçada de 2600 ft

METAR: GMME 201500Z 34009KT 5000 FEW010 SCT026 16/11 Q1013 NOSIG

Hora: 09:38 (09:38 UTC)

Pronòstic

L'informe es va fer fa 23 hores i 8 minuts, a les 10:30 UTC
Pronòstic vàlid del 20 a les 12 UTC al 21 a les 18 UTC
Vent 10 kt del Nord
Visibilitat: 8000 m
Temporalment
l' 20 a les 19 UTC al 21 a les 10 UTC
Vent 6 kt del Sud-Est
Visibilitat: 2000 m
Cel ennuvolat a una alçada de 600 ft
boirina
Probabilitat 40% :
Temporalment
l' 20 a les 23 UTC al 21 a les 08 UTC
Visibilitat: 0600 m
boira

TAF: GMME 201030Z 2012/2118 36010KT 8000 NSC TEMPO 2019/2110 14006KT 2000 BR BKN006 PROB40 TEMPO 2023/2108 0600 FG

Observacions i pronòstics meteorològics de més de 4000 aeroports (METAR i TAF).

Les estacions disponibles són els punts grocs i vermells al mapa.

Posi el ratolí al punt desitjat per veure el nom de l'estació.

Feu clic per veure les observacions i els pronòstics meteorològics.

Per canviar el mapa: feu clic els botons verds amb una creu de color negre per apropar; al botó verd amb un guió per allunyar la imatge; o en les fletxes verdes per a mapes adjacents.


METAR-TAF: